Time;durP1;ratioP1;P1;durP2;ratioP2;P2;SDS_P1;SDS_P2;PMS_P1;PMS_P2;Temp;Humidity;BMP_temperature;BMP_pressure;BME280_temperature;BME280_humidity;BME280_pressure;Samples;Min_cycle;Max_cycle;Signal;HPM_P1;HPM_P2
2022/03/07 00:01:47;;;;;;;;;;;;;;;-1.35;87.04;100299.75;4996251;28;20380;-84
2022/03/07 00:04:14;;;;;;;;;;;;;;;-1.35;86.45;100305.16;4997598;28;19933;-83
2022/03/07 00:06:40;;;;;;;;;;;;;;;-1.33;86.79;100305.75;4997405;28;19972;-83
2022/03/07 00:09:05;;;;;;;;;;;;;;;-1.39;86.56;100293.97;4994427;28;20435;-82
2022/03/07 00:11:31;;;;;;;;;;;;;;;-1.40;86.96;100304.94;4992004;28;20025;-83
2022/03/07 00:13:56;;;;;;;;;;;;;;;-1.44;86.21;100311.78;4993996;28;19936;-84
2022/03/07 00:16:21;;;;;;;;;;;;;;;-1.40;86.58;100294.16;4992350;28;19929;-85
2022/03/07 00:18:47;;;;;;;;;;;;;;;-1.43;87.32;100299.97;4984944;28;19925;-85
2022/03/07 00:21:13;;;;;;;;;;;;;;;-1.43;86.92;100299.97;4992881;28;19926;-83
2022/03/07 00:23:38;;;;;;;;;;;;;;;-1.41;86.85;100308.66;4992168;28;19965;-83
2022/03/07 00:26:04;;;;;;;;;;;;;;;-1.40;86.86;100310.31;4993758;28;20724;-85
2022/03/07 00:28:30;;;;;;;;;;;;;;;-1.37;86.82;100299.16;5011833;28;19926;-85
2022/03/07 00:30:55;;;;;;;;;;;;;;;-1.35;87.15;100307.84;4992150;28;19933;-83
2022/03/07 00:33:21;;;;;;;;;;;;;;;-1.34;86.48;100302.25;4993240;28;19926;-84
2022/03/07 00:35:46;;;;;;;;;;;;;;;-1.35;86.10;100308.66;4993031;28;19930;-81
2022/03/07 00:38:12;;;;;;;;;;;;;;;-1.37;87.30;100309.91;4993089;28;19926;-82
2022/03/07 00:40:38;;;;;;;;;;;;;;;-1.40;86.27;100313.81;4991228;28;20435;-79
2022/03/07 00:43:07;;;;;;;;;;;;;;;-1.39;86.87;100317.34;4991444;28;19925;-79
2022/03/07 00:45:33;;;;;;;;;;;;;;;-1.38;86.50;100319.03;4992267;28;19925;-80
2022/03/07 00:48:00;;;;;;;;;;;;;;;-1.39;86.67;100317.34;4991485;28;19926;-79
2022/03/07 00:50:25;;;;;;;;;;;;;;;-1.40;86.14;100326.47;4992502;28;19925;-78
2022/03/07 00:52:50;;;;;;;;;;;;;;;-1.42;86.53;100323.97;4992750;28;19929;-78
2022/03/07 00:55:16;;;;;;;;;;;;;;;-1.39;86.47;100331.66;4970897;28;19926;-78
2022/03/07 00:57:42;;;;;;;;;;;;;;;-1.38;87.31;100333.31;4991274;28;20350;-78
2022/03/07 01:00:09;;;;;;;;;;;;;;;-1.39;86.70;100330.81;4990864;28;19930;-79
2022/03/07 01:02:35;;;;;;;;;;;;;;;-1.42;87.22;100342.00;4992048;28;20023;-79
2022/03/07 01:05:01;;;;;;;;;;;;;;;-1.41;86.43;100335.56;4990841;28;19932;-79
2022/03/07 01:07:26;;;;;;;;;;;;;;;-1.39;86.46;100333.50;4992144;28;19944;-78
2022/03/07 01:09:52;;;;;;;;;;;;;;;-1.43;86.22;100332.25;4990676;28;19928;-79
2022/03/07 01:12:18;;;;;;;;;;;;;;;-1.44;86.38;100342.19;4990554;28;20024;-78
2022/03/07 01:14:43;;;;;;;;;;;;;;;-1.39;86.39;100344.25;4972643;28;20397;-79
2022/03/07 01:17:08;;;;;;;;;;;;;;;-1.32;87.22;100345.09;4990716;28;19930;-79
2022/03/07 01:19:34;;;;;;;;;;;;;;;-1.30;86.75;100353.78;4991801;28;19925;-80
2022/03/07 01:22:00;;;;;;;;;;;;;;;-1.35;86.23;100353.59;4990374;28;20424;-80
2022/03/07 01:24:25;;;;;;;;;;;;;;;-1.39;86.58;100360.41;4987496;28;19930;-80
2022/03/07 01:26:51;;;;;;;;;;;;;;;-1.40;86.57;100361.44;4990420;28;20020;-81
2022/03/07 01:29:19;;;;;;;;;;;;;;;-1.42;86.15;100361.66;4990507;28;20020;-79
2022/03/07 01:31:45;;;;;;;;;;;;;;;-1.48;86.74;100362.50;4991543;28;19926;-79
2022/03/07 01:34:10;;;;;;;;;;;;;;;-1.51;85.77;100376.38;4991106;28;20547;-80
2022/03/07 01:36:36;;;;;;;;;;;;;;;-1.52;86.26;100374.72;4989518;28;20032;-80
2022/03/07 01:39:02;;;;;;;;;;;;;;;-1.59;86.44;100377.41;4991588;28;19926;-80
2022/03/07 01:41:27;;;;;;;;;;;;;;;-1.60;86.43;100375.75;4990196;28;20336;-80
2022/03/07 01:43:52;;;;;;;;;;;;;;;-1.59;86.94;100376.56;4990005;28;19926;-80
2022/03/07 01:46:18;;;;;;;;;;;;;;;-1.58;86.68;100373.69;4991729;28;19937;-80
2022/03/07 01:48:44;;;;;;;;;;;;;;;-1.62;87.23;100379.69;5006469;28;19936;-80
2022/03/07 01:51:11;;;;;;;;;;;;;;;-1.62;87.04;100383.22;4973975;28;19925;-80
2022/03/07 01:53:37;;;;;;;;;;;;;;;-1.63;87.20;100392.31;4989692;28;19983;-80
2022/03/07 01:56:03;;;;;;;;;;;;;;;-1.67;87.27;100391.06;4991184;28;19976;-80
2022/03/07 01:58:30;;;;;;;;;;;;;;;-1.69;87.06;100395.84;4989957;28;20032;-80
2022/03/07 02:00:55;;;;;;;;;;;;;;;-1.69;87.19;100395.84;4991534;28;20420;-80
2022/03/07 02:03:21;;;;;;;;;;;;;;;-1.67;86.87;100401.00;4990290;28;19926;-80
2022/03/07 02:05:47;;;;;;;;;;;;;;;-1.68;86.65;100402.88;4990425;28;19953;-79
2022/03/07 02:08:23;;;;;;;;;;;;;;;-1.67;87.61;100406.41;4988911;28;19930;-80
2022/03/07 02:10:53;;;;;;;;;;;;;;;-1.68;87.40;100421.72;4991634;28;19925;-80
2022/03/07 02:13:19;;;;;;;;;;;;;;;-1.69;87.56;100419.22;4990005;28;19925;-79
2022/03/07 02:15:55;;;;;;;;;;;;;;;-1.62;87.77;100420.88;4966238;28;20080;-79
2022/03/07 02:18:22;;;;;;;;;;;;;;;-1.64;88.23;100425.63;4982824;28;19933;-79
2022/03/07 02:20:50;;;;;;;;;;;;;;;-1.53;87.06;100429.56;5006554;28;19930;-80
2022/03/07 02:23:16;;;;;;;;;;;;;;;-1.56;87.58;100438.91;4990530;28;20420;-80
2022/03/07 02:25:41;;;;;;;;;;;;;;;-1.54;87.69;100454.84;4974584;28;19926;-80
2022/03/07 02:28:07;;;;;;;;;;;;;;;-1.57;88.01;100445.28;4993177;28;19926;-80
2022/03/07 02:30:33;;;;;;;;;;;;;;;-1.54;87.75;100442.19;4994792;28;19926;-80
2022/03/07 02:32:58;;;;;;;;;;;;;;;-1.54;87.21;100446.75;4994946;28;20368;-80
2022/03/07 02:35:24;;;;;;;;;;;;;;;-1.61;88.02;100448.59;4994149;28;20381;-80
2022/03/07 02:37:50;;;;;;;;;;;;;;;-1.64;87.81;100465.97;4978651;28;19933;-79
2022/03/07 02:40:19;;;;;;;;;;;;;;;-1.72;87.78;100473.44;4994681;28;19988;-79
2022/03/07 02:42:45;;;;;;;;;;;;;;;-1.83;88.60;100461.41;4993129;28;19926;-80
2022/03/07 02:45:11;;;;;;;;;;;;;;;-1.91;89.01;100462.44;4994199;28;20256;-79
2022/03/07 02:47:36;;;;;;;;;;;;;;;-1.90;88.61;100464.09;4994177;28;19930;-79
2022/03/07 02:50:03;;;;;;;;;;;;;;;-1.89;88.00;100467.63;4995162;28;19932;-79
2022/03/07 02:52:28;;;;;;;;;;;;;;;-1.93;88.81;100475.25;5010626;28;20356;-80
2022/03/07 02:54:53;;;;;;;;;;;;;;;-1.92;89.12;100486.81;4994963;28;19926;-80
2022/03/07 02:57:19;;;;;;;;;;;;;;;-1.95;88.54;100480.00;4995319;28;19926;-80
2022/03/07 02:59:44;;;;;;;;;;;;;;;-1.96;89.46;100477.50;4994933;28;19983;-80
2022/03/07 03:02:10;;;;;;;;;;;;;;;-1.97;88.84;100486.63;4995117;28;19999;-80
2022/03/07 03:04:36;;;;;;;;;;;;;;;-2.00;89.17;100487.84;4995011;28;19926;-80
2022/03/07 03:07:02;;;;;;;;;;;;;;;-1.98;89.13;100495.72;4995270;28;19933;-79
2022/03/07 03:09:28;;;;;;;;;;;;;;;-1.94;89.13;100502.34;4994870;28;19926;-81
2022/03/07 03:11:53;;;;;;;;;;;;;;;-1.90;89.69;100498.22;4994216;28;20060;-81
2022/03/07 03:14:19;;;;;;;;;;;;;;;-1.90;89.21;100507.13;4994439;28;19975;-81
2022/03/07 03:16:44;;;;;;;;;;;;;;;-1.96;88.52;100520.53;4994927;28;19926;-81
2022/03/07 03:19:10;;;;;;;;;;;;;;;-2.01;88.76;100513.09;4994671;28;19925;-80
2022/03/07 03:21:35;;;;;;;;;;;;;;;-2.02;88.77;100527.56;4994295;28;20361;-80
2022/03/07 03:24:01;;;;;;;;;;;;;;;-2.03;88.04;100525.06;4994803;28;20347;-81
2022/03/07 03:26:26;;;;;;;;;;;;;;;-2.02;88.34;100529.41;4994248;28;19988;-80
2022/03/07 03:28:52;;;;;;;;;;;;;;;-2.12;87.66;100549.44;4993779;28;19926;-80
2022/03/07 03:31:17;;;;;;;;;;;;;;;-2.19;88.22;100532.47;5003860;28;19930;-81
2022/03/07 03:33:42;;;;;;;;;;;;;;;-2.21;87.33;100549.81;4994832;28;19921;-80
2022/03/07 03:36:08;;;;;;;;;;;;;;;-2.22;87.88;100561.59;4994790;28;19929;-81
2022/03/07 03:38:34;;;;;;;;;;;;;;;-2.21;87.62;100558.72;4992517;28;19958;-80
2022/03/07 03:40:59;;;;;;;;;;;;;;;-2.20;87.76;100555.00;4993162;28;19961;-80
2022/03/07 03:43:25;;;;;;;;;;;;;;;-2.20;87.05;100564.91;4991885;28;20077;-80
2022/03/07 03:45:50;;;;;;;;;;;;;;;-2.25;87.50;100576.28;4992933;28;19980;-80
2022/03/07 03:48:15;;;;;;;;;;;;;;;-2.32;87.48;100580.75;4994385;28;19933;-81
2022/03/07 03:50:41;;;;;;;;;;;;;;;-2.36;87.16;100592.13;4994143;28;20316;-81
2022/03/07 03:53:06;;;;;;;;;;;;;;;-2.36;87.31;100601.00;4993423;28;20312;-82
2022/03/07 03:55:32;;;;;;;;;;;;;;;-2.36;87.34;100602.88;4993504;28;19925;-81
2022/03/07 03:57:57;;;;;;;;;;;;;;;-2.35;86.89;100602.66;4994353;28;19926;-82
2022/03/07 04:00:24;;;;;;;;;;;;;;;-2.41;85.74;100619.59;4992889;28;20060;-81
2022/03/07 04:02:49;;;;;;;;;;;;;;;-2.51;85.56;100624.47;4993711;28;20380;-81
2022/03/07 04:05:15;;;;;;;;;;;;;;;-2.53;85.78;100626.53;4993728;28;19930;-80
2022/03/07 04:07:41;;;;;;;;;;;;;;;-2.62;84.81;100630.38;4992857;28;19921;-81
2022/03/07 04:10:07;;;;;;;;;;;;;;;-2.69;85.28;100638.38;4996814;28;20297;-81
2022/03/07 04:12:32;;;;;;;;;;;;;;;-2.76;85.00;100632.97;4992880;28;20029;-80
2022/03/07 04:14:58;;;;;;;;;;;;;;;-2.76;85.79;100641.03;4993749;28;19932;-80
2022/03/07 04:17:23;;;;;;;;;;;;;;;-2.82;85.35;100640.97;4993572;28;19976;-80
2022/03/07 04:19:49;;;;;;;;;;;;;;;-2.78;85.32;100655.66;4998041;28;19937;-80
2022/03/07 04:22:15;;;;;;;;;;;;;;;-2.71;84.65;100661.09;4999942;28;20136;-81
2022/03/07 04:24:40;;;;;;;;;;;;;;;-2.79;84.13;100665.56;4991879;28;19976;-80
2022/03/07 04:27:06;;;;;;;;;;;;;;;-2.83;84.83;100664.28;4992358;28;19922;-80
2022/03/07 04:29:32;;;;;;;;;;;;;;;-2.94;84.91;100667.53;4993141;28;19925;-80
2022/03/07 04:31:57;;;;;;;;;;;;;;;-2.97;84.70;100667.88;4992591;28;19931;-81
2022/03/07 04:34:22;;;;;;;;;;;;;;;-3.01;84.76;100671.97;4993244;28;19929;-80
2022/03/07 04:36:48;;;;;;;;;;;;;;;-3.01;85.03;100674.66;4993391;28;20008;-80
2022/03/07 04:39:13;;;;;;;;;;;;;;;-3.04;84.42;100683.09;4993321;28;20001;-81
2022/03/07 04:41:40;;;;;;;;;;;;;;;-3.05;84.73;100676.91;4991715;28;20012;-81
2022/03/07 04:44:05;;;;;;;;;;;;;;;-3.12;84.47;100681.38;4993161;28;19932;-81
2022/03/07 04:46:31;;;;;;;;;;;;;;;-3.10;83.99;100683.88;4999818;28;20036;-80
2022/03/07 04:48:56;;;;;;;;;;;;;;;-3.14;83.73;100685.25;4988538;28;19926;-80
2022/03/07 04:51:22;;;;;;;;;;;;;;;-3.14;83.99;100704.03;4972166;28;19984;-80
2022/03/07 04:53:47;;;;;;;;;;;;;;;-3.29;83.23;100696.06;4984544;28;20400;-80
2022/03/07 04:56:12;;;;;;;;;;;;;;;-3.30;83.61;100715.84;4983200;28;19933;-80
2022/03/07 04:58:38;;;;;;;;;;;;;;;-3.30;82.99;100720.38;4979614;28;19930;-80
2022/03/07 05:01:04;;;;;;;;;;;;;;;-3.34;83.37;100712.72;4978853;28;19945;-80
2022/03/07 05:03:29;;;;;;;;;;;;;;;-3.41;82.48;100722.53;4981705;28;20316;-81
2022/03/07 05:05:54;;;;;;;;;;;;;;;-3.42;82.79;100736.97;4994825;28;20016;-81
2022/03/07 05:08:20;;;;;;;;;;;;;;;-3.43;82.73;100742.53;4982952;28;19930;-80
2022/03/07 05:10:45;;;;;;;;;;;;;;;-3.60;82.03;100747.28;4982483;28;19922;-81
2022/03/07 05:13:11;;;;;;;;;;;;;;;-3.71;81.47;100751.25;4981864;28;20422;-81
2022/03/07 05:15:37;;;;;;;;;;;;;;;-3.78;82.27;100728.03;4988962;28;20468;-81
2022/03/07 05:18:03;;;;;;;;;;;;;;;-3.80;81.42;100743.50;4992745;28;20483;-79
2022/03/07 05:20:28;;;;;;;;;;;;;;;-3.79;82.06;100745.16;4992373;28;20028;-80
2022/03/07 05:22:54;;;;;;;;;;;;;;;-3.77;81.74;100737.75;4991056;28;19949;-80
2022/03/07 05:25:20;;;;;;;;;;;;;;;-3.81;81.68;100741.81;4995659;28;19932;-80
2022/03/07 05:27:45;;;;;;;;;;;;;;;-3.85;82.07;100748.56;4992397;28;19926;-79
2022/03/07 05:30:14;;;;;;;;;;;;;;;-3.86;82.12;100762.97;5006037;28;19943;-80
2022/03/07 05:32:42;;;;;;;;;;;;;;;-3.89;81.79;100753.47;4992498;28;19934;-80
2022/03/07 05:35:07;;;;;;;;;;;;;;;-3.95;82.02;100752.34;4992093;28;19926;-80
2022/03/07 05:37:33;;;;;;;;;;;;;;;-3.98;82.48;100766.13;4992950;28;19996;-80
2022/03/07 05:39:58;;;;;;;;;;;;;;;-4.01;81.96;100782.56;4992221;28;20396;-84
2022/03/07 05:42:24;;;;;;;;;;;;;;;-4.07;81.89;100777.09;4992387;28;19926;-80
2022/03/07 05:44:49;;;;;;;;;;;;;;;-4.09;81.18;100776.44;4982597;28;19926;-80
2022/03/07 05:47:15;;;;;;;;;;;;;;;-4.09;81.54;100784.50;4991088;28;19926;-81
2022/03/07 05:49:40;;;;;;;;;;;;;;;-4.16;81.89;100788.94;5001952;28;20298;-80
2022/03/07 05:52:06;;;;;;;;;;;;;;;-4.21;81.80;100794.81;5004337;28;19953;-80
2022/03/07 05:54:31;;;;;;;;;;;;;;;-4.22;81.00;100801.19;4991863;28;19969;-80
2022/03/07 05:56:57;;;;;;;;;;;;;;;-4.32;80.69;100814.00;4992135;28;19932;-80
2022/03/07 05:59:23;;;;;;;;;;;;;;;-4.39;80.83;100826.44;4992060;28;19925;-80
2022/03/07 06:01:48;;;;;;;;;;;;;;;-4.45;80.28;100817.28;4991171;28;20498;-80
2022/03/07 06:04:13;;;;;;;;;;;;;;;-4.54;80.37;100807.63;4995740;28;19932;-79
2022/03/07 06:06:39;;;;;;;;;;;;;;;-4.60;80.05;100821.75;4978797;28;20408;-80
2022/03/07 06:09:05;;;;;;;;;;;;;;;-4.63;80.42;100822.94;4996272;28;20427;-79
2022/03/07 06:11:30;;;;;;;;;;;;;;;-4.67;80.26;100818.94;4994740;28;20026;-79
2022/03/07 06:13:56;;;;;;;;;;;;;;;-4.69;80.32;100837.00;4999776;28;20006;-80
2022/03/07 06:16:21;;;;;;;;;;;;;;;-4.75;80.39;100831.53;4995974;28;19972;-79
2022/03/07 06:18:46;;;;;;;;;;;;;;;-4.76;79.24;100845.94;4995617;28;20016;-79
2022/03/07 06:21:12;;;;;;;;;;;;;;;-4.84;78.96;100862.88;4995583;28;19945;-79
2022/03/07 06:23:37;;;;;;;;;;;;;;;-4.88;77.99;100857.03;4994170;28;19932;-78
2022/03/07 06:26:06;;;;;;;;;;;;;;;-4.91;78.00;100840.50;4992522;28;19952;-81
2022/03/07 06:28:32;;;;;;;;;;;;;;;-4.93;77.38;100850.53;4992667;28;19948;-80
2022/03/07 06:30:58;;;;;;;;;;;;;;;-4.98;78.09;100844.91;4992756;28;20393;-80
2022/03/07 06:33:23;;;;;;;;;;;;;;;-4.93;78.27;100839.84;4992479;28;19925;-80
2022/03/07 06:35:49;;;;;;;;;;;;;;;-4.92;77.75;100857.56;4992574;28;19945;-79
2022/03/07 06:38:14;;;;;;;;;;;;;;;-5.03;76.44;100871.31;4991506;28;19925;-78
2022/03/07 06:40:39;;;;;;;;;;;;;;;-5.11;76.48;100868.69;4992386;28;20396;-78
2022/03/07 06:43:05;;;;;;;;;;;;;;;-5.09;76.77;100880.06;4992688;28;20380;-81
2022/03/07 06:45:30;;;;;;;;;;;;;;;-5.04;76.69;100886.53;4990805;28;19930;-79
2022/03/07 06:47:56;;;;;;;;;;;;;;;-5.08;76.80;100892.41;4990654;28;20376;-80
2022/03/07 06:50:21;;;;;;;;;;;;;;;-5.07;77.47;100891.41;4992498;28;19932;-80
2022/03/07 06:52:47;;;;;;;;;;;;;;;-4.98;76.59;100890.38;4992212;28;19932;-81
2022/03/07 06:55:13;;;;;;;;;;;;;;;-4.94;77.36;100897.06;4992424;28;19951;-81
2022/03/07 06:57:39;;;;;;;;;;;;;;;-4.89;76.65;100910.72;5000630;28;19976;-81
2022/03/07 07:00:05;;;;;;;;;;;;;;;-4.87;76.52;100898.00;4992626;28;19953;-80
2022/03/07 07:02:31;;;;;;;;;;;;;;;-4.84;76.32;100900.38;4992030;28;20289;-80
2022/03/07 07:04:58;;;;;;;;;;;;;;;-4.92;75.76;100895.03;4975147;28;19980;-80
2022/03/07 07:07:23;;;;;;;;;;;;;;;-4.94;76.59;100900.56;4993559;28;20439;-80
2022/03/07 07:09:49;;;;;;;;;;;;;;;-4.91;76.21;100902.03;4995516;28;19925;-80
2022/03/07 07:12:14;;;;;;;;;;;;;;;-4.90;75.55;100915.25;4994852;28;20389;-80
2022/03/07 07:14:40;;;;;;;;;;;;;;;-4.94;75.70;100918.47;4994915;28;19929;-79
2022/03/07 07:17:05;;;;;;;;;;;;;;;-4.88;76.26;100929.28;4994714;28;19926;-77
2022/03/07 07:19:31;;;;;;;;;;;;;;;-4.91;76.05;100920.78;4994336;28;19926;-80
2022/03/07 07:21:56;;;;;;;;;;;;;;;-4.91;76.18;100923.47;4993902;28;20404;-81
2022/03/07 07:24:22;;;;;;;;;;;;;;;-4.88;76.82;100933.81;4995363;28;20029;-80
2022/03/07 07:26:47;;;;;;;;;;;;;;;-4.87;75.68;100941.66;4993371;28;19961;-81
2022/03/07 07:29:13;;;;;;;;;;;;;;;-4.92;75.68;100943.19;4992724;28;19929;-82
2022/03/07 07:31:38;;;;;;;;;;;;;;;-4.99;75.33;100960.97;4993146;28;19972;-81
2022/03/07 07:34:04;;;;;;;;;;;;;;;-5.04;75.59;100977.50;4993410;28;19926;-82
2022/03/07 07:36:29;;;;;;;;;;;;;;;-5.05;74.95;100973.16;4994164;28;19930;-80
2022/03/07 07:38:55;;;;;;;;;;;;;;;-5.03;75.18;100973.88;4996923;28;20363;-80
2022/03/07 07:41:20;;;;;;;;;;;;;;;-4.98;75.52;100968.00;5001561;28;19925;-80
2022/03/07 07:43:49;;;;;;;;;;;;;;;-4.90;74.25;100970.63;4994349;28;19926;-79
2022/03/07 07:46:15;;;;;;;;;;;;;;;-4.97;73.78;100972.31;4994224;28;19925;-79
2022/03/07 07:48:40;;;;;;;;;;;;;;;-4.96;73.53;100979.34;4992736;28;19926;-80
2022/03/07 07:51:05;;;;;;;;;;;;;;;-4.98;73.74;100976.00;4994177;28;19933;-78
2022/03/07 07:53:32;;;;;;;;;;;;;;;-5.06;72.99;100992.06;4993125;28;19926;-79
2022/03/07 07:55:57;;;;;;;;;;;;;;;-5.09;73.04;100992.41;4998938;28;19932;-78
2022/03/07 07:58:23;;;;;;;;;;;;;;;-5.00;73.08;100984.22;4997024;28;19930;-79
2022/03/07 08:00:48;;;;;;;;;;;;;;;-4.95;73.16;100991.72;5001730;28;19926;-80
2022/03/07 08:03:13;;;;;;;;;;;;;;;-5.02;73.07;100993.44;5002754;28;19948;-81
2022/03/07 08:05:39;;;;;;;;;;;;;;;-5.08;73.73;100999.44;5005084;28;19937;-80
2022/03/07 08:08:04;;;;;;;;;;;;;;;-5.09;73.16;101003.13;5007186;28;20436;-80
2022/03/07 08:10:30;;;;;;;;;;;;;;;-5.07;72.73;101014.50;4998874;28;20515;-81
2022/03/07 08:12:55;;;;;;;;;;;;;;;-5.11;73.22;100991.75;5009419;28;19980;-80
2022/03/07 08:15:21;;;;;;;;;;;;;;;-5.07;73.13;101003.78;4997763;28;19965;-80
2022/03/07 08:17:49;;;;;;;;;;;;;;;-5.02;72.99;101006.81;4998908;28;19926;-80
2022/03/07 08:20:19;;;;;;;;;;;;;;;-4.97;73.87;101018.66;4992703;28;20012;-80
2022/03/07 08:22:44;;;;;;;;;;;;;;;-4.90;73.14;101014.28;4976486;28;20028;-80
2022/03/07 08:25:10;;;;;;;;;;;;;;;-4.90;73.57;101014.28;4993613;28;20028;-81
2022/03/07 08:27:36;;;;;;;;;;;;;;;-4.86;72.96;101012.09;5003758;28;20074;-80
2022/03/07 08:30:02;;;;;;;;;;;;;;;-4.73;73.61;101017.75;4995219;28;20022;-80
2022/03/07 08:32:27;;;;;;;;;;;;;;;-4.71;72.27;101022.91;4996922;28;19926;-79
2022/03/07 08:34:53;;;;;;;;;;;;;;;-4.74;72.97;101008.03;5006618;28;19930;-81
2022/03/07 08:37:18;;;;;;;;;;;;;;;-4.70;72.90;101009.34;4989144;28;20024;-81
2022/03/07 08:39:44;;;;;;;;;;;;;;;-4.59;72.37;101016.19;4993469;28;19953;-80
2022/03/07 08:42:09;;;;;;;;;;;;;;;-4.51;72.64;101009.97;4992907;28;19930;-81
2022/03/07 08:44:35;;;;;;;;;;;;;;;-4.48;72.53;101007.78;4989979;28;19929;-82
2022/03/07 08:47:01;;;;;;;;;;;;;;;-4.50;72.20;101019.69;4992314;28;20036;-80
2022/03/07 08:49:26;;;;;;;;;;;;;;;-4.38;73.07;101034.34;4994573;28;20028;-81
2022/03/07 08:51:51;;;;;;;;;;;;;;;-4.34;72.75;101032.97;4992450;28;20048;-81
2022/03/07 08:54:17;;;;;;;;;;;;;;;-4.32;71.58;101033.66;4987084;28;20063;-81
2022/03/07 08:56:43;;;;;;;;;;;;;;;-4.37;71.12;101044.88;4991753;28;19945;-81
2022/03/07 08:59:09;;;;;;;;;;;;;;;-4.50;70.50;101059.88;5007857;28;20503;-82
2022/03/07 09:01:34;;;;;;;;;;;;;;;-4.64;71.34;101048.84;5004569;28;20024;-80
2022/03/07 09:03:59;;;;;;;;;;;;;;;-4.67;70.45;101072.47;4991284;28;19930;-81
2022/03/07 09:06:25;;;;;;;;;;;;;;;-4.73;71.16;101046.34;4989646;28;20009;-80
2022/03/07 09:08:50;;;;;;;;;;;;;;;-4.76;71.12;101058.25;4991446;28;19926;-80
2022/03/07 09:11:16;;;;;;;;;;;;;;;-4.77;70.82;101053.06;4992585;28;19957;-81
2022/03/07 09:13:41;;;;;;;;;;;;;;;-4.87;70.03;101074.66;4992344;28;19922;-80
2022/03/07 09:16:07;;;;;;;;;;;;;;;-4.87;70.58;101058.59;4992942;28;19925;-78
2022/03/07 09:18:32;;;;;;;;;;;;;;;-4.81;70.62;101057.94;4993292;28;19933;-81
2022/03/07 09:20:58;;;;;;;;;;;;;;;-4.66;71.55;101074.97;4990161;28;19933;-80
2022/03/07 09:23:23;;;;;;;;;;;;;;;-4.42;71.33;101075.88;4991583;28;20303;-80
2022/03/07 09:25:49;;;;;;;;;;;;;;;-4.46;70.70;101078.09;4990076;28;20387;-79
2022/03/07 09:28:14;;;;;;;;;;;;;;;-4.39;71.87;101094.28;4993207;28;20016;-81
2022/03/07 09:30:40;;;;;;;;;;;;;;;-4.43;70.92;101098.31;4990757;28;19953;-80
2022/03/07 09:33:05;;;;;;;;;;;;;;;-4.52;70.82;101100.19;4992029;28;19960;-80
2022/03/07 09:35:31;;;;;;;;;;;;;;;-4.53;70.44;101109.22;4992238;28;19972;-81
2022/03/07 09:37:57;;;;;;;;;;;;;;;-4.48;71.26;101108.72;4990192;28;20388;-80
2022/03/07 09:40:22;;;;;;;;;;;;;;;-4.38;71.52;101115.53;4990991;28;19932;-80
2022/03/07 09:42:48;;;;;;;;;;;;;;;-4.31;70.66;101116.53;4993888;28;20412;-80
2022/03/07 09:45:13;;;;;;;;;;;;;;;-4.32;71.14;101133.63;4991917;28;19933;-80
2022/03/07 09:47:39;;;;;;;;;;;;;;;-4.40;70.91;101108.69;5009914;28;19930;-81
2022/03/07 09:50:05;;;;;;;;;;;;;;;-4.42;71.32;101111.53;4991579;28;19995;-80
2022/03/07 09:52:31;;;;;;;;;;;;;;;-4.37;70.87;101108.34;4991737;28;19933;-81
2022/03/07 09:54:58;;;;;;;;;;;;;;;-4.37;71.05;101113.69;4989474;28;20040;-80
2022/03/07 09:57:24;;;;;;;;;;;;;;;-4.33;70.80;101123.09;4990728;28;20411;-81
2022/03/07 09:59:49;;;;;;;;;;;;;;;-4.38;70.23;101112.88;4990013;28;19945;-81
2022/03/07 10:02:22;;;;;;;;;;;;;;;-4.43;70.27;101107.19;4991259;28;19925;-81
2022/03/07 10:04:48;;;;;;;;;;;;;;;-4.33;70.40;101112.38;4991959;28;20389;-81
2022/03/07 10:07:13;;;;;;;;;;;;;;;-4.37;70.34;101098.47;4991749;28;20021;-80
2022/03/07 10:09:39;;;;;;;;;;;;;;;-4.38;70.64;101101.31;4990479;28;20289;-80
2022/03/07 10:12:04;;;;;;;;;;;;;;;-4.39;70.77;101108.50;4991477;28;19926;-80
2022/03/07 10:14:31;;;;;;;;;;;;;;;-4.43;70.42;101103.69;4990807;28;20356;-81
2022/03/07 10:16:56;;;;;;;;;;;;;;;-4.55;71.58;101097.84;4991926;28;19932;-79
2022/03/07 10:19:22;;;;;;;;;;;;;;;-4.49;72.16;101104.38;4990640;28;19925;-79
2022/03/07 10:21:49;;;;;;;;;;;;;;;-4.45;72.36;101122.59;4990893;28;20369;-80
2022/03/07 10:24:15;;;;;;;;;;;;;;;-4.47;71.98;101103.19;4990527;28;19929;-81
2022/03/07 10:26:41;;;;;;;;;;;;;;;-4.43;72.61;101109.88;4974511;28;19926;-79
2022/03/07 10:29:06;;;;;;;;;;;;;;;-4.41;73.58;101125.78;4990680;28;20329;-80
2022/03/07 10:31:32;;;;;;;;;;;;;;;-4.43;72.68;101111.72;4992746;28;19926;-80
2022/03/07 10:34:08;;;;;;;;;;;;;;;-4.42;72.47;101116.06;5007313;28;20411;-80
2022/03/07 10:36:37;;;;;;;;;;;;;;;-4.38;73.25;101118.22;4993882;28;19930;-80
2022/03/07 10:39:04;;;;;;;;;;;;;;;-4.29;72.76;101116.38;4992221;28;19979;-80
2022/03/07 10:41:33;;;;;;;;;;;;;;;-4.44;72.75;101123.44;4991875;28;20290;-81
2022/03/07 10:43:59;;;;;;;;;;;;;;;-4.38;72.14;101114.72;4990301;28;19925;-80
2022/03/07 10:46:25;;;;;;;;;;;;;;;-4.32;72.06;101106.00;4991533;28;20408;-80
2022/03/07 10:48:51;;;;;;;;;;;;;;;-4.27;71.80;101104.47;4993126;28;20024;-80
2022/03/07 10:51:17;;;;;;;;;;;;;;;-4.31;71.02;101107.66;5004264;28;19993;-81
2022/03/07 10:53:43;;;;;;;;;;;;;;;-4.35;70.66;101117.03;4998619;28;19925;-80
2022/03/07 10:56:10;;;;;;;;;;;;;;;-4.38;70.02;101133.47;4994626;28;20385;-80
2022/03/07 10:58:36;;;;;;;;;;;;;;;-4.46;70.31;101138.84;4997307;28;19935;-81
2022/03/07 11:01:01;;;;;;;;;;;;;;;-4.56;68.87;101144.38;5008832;28;20020;-91
2022/03/07 11:03:31;;;;;;;;;;;;;;;-4.59;69.73;101156.28;4997918;28;20013;-90
2022/03/07 11:05:57;;;;;;;;;;;;;;;-4.57;68.86;101167.66;4996061;28;19925;-88
2022/03/07 11:08:22;;;;;;;;;;;;;;;-4.56;67.73;101160.44;4994983;28;20021;-91
2022/03/07 11:10:49;;;;;;;;;;;;;;;-4.51;68.41;101157.25;4994653;28;19921;-77
2022/03/07 11:13:15;;;;;;;;;;;;;;;-4.51;67.21;101144.72;4994133;28;20431;-78
2022/03/07 11:15:42;;;;;;;;;;;;;;;-4.51;66.72;101162.59;4994363;28;20407;-81
2022/03/07 11:18:08;;;;;;;;;;;;;;;-4.51;67.23;101160.78;4993278;28;19926;-86
2022/03/07 11:20:34;;;;;;;;;;;;;;;-4.50;66.44;101153.59;4977189;28;19925;-85
2022/03/07 11:22:59;;;;;;;;;;;;;;;-4.52;66.23;101160.94;4994448;28;19960;-87
2022/03/07 11:25:26;;;;;;;;;;;;;;;-4.53;66.75;101160.09;4993587;28;19930;-90
2022/03/07 11:27:51;;;;;;;;;;;;;;;-4.49;67.34;101160.63;4994736;28;19925;-86
2022/03/07 11:30:20;;;;;;;;;;;;;;;-4.43;68.03;101158.09;4992350;28;19932;-82
2022/03/07 11:32:47;;;;;;;;;;;;;;;-4.35;66.95;101166.09;4992763;28;20301;-82
2022/03/07 11:35:13;;;;;;;;;;;;;;;-4.36;68.20;101163.59;4971756;28;19926;-82
2022/03/07 11:37:39;;;;;;;;;;;;;;;-4.48;68.66;101173.84;4992069;28;20020;-78
2022/03/07 11:40:15;;;;;;;;;;;;;;;-4.59;68.39;101166.16;4996775;28;20071;-82
2022/03/07 11:42:41;;;;;;;;;;;;;;;-4.60;68.96;101167.16;5002553;28;20385;-86
2022/03/07 11:45:07;;;;;;;;;;;;;;;-4.63;69.19;101168.34;4993735;28;19926;-84
2022/03/07 11:47:37;;;;;;;;;;;;;;;-4.60;69.96;101178.69;4993859;28;19929;-88
2022/03/07 11:50:03;;;;;;;;;;;;;;;-4.58;69.14;101182.03;4991664;28;19933;-91
2022/03/07 11:52:28;;;;;;;;;;;;;;;-4.67;69.59;101180.41;4994486;28;19921;-89
2022/03/07 11:54:58;;;;;;;;;;;;;;;-4.69;70.24;101189.56;4994941;28;19926;-92
2022/03/07 11:57:37;;;;;;;;;;;;;;;-4.74;69.91;101187.41;4990950;28;19922;-88
2022/03/07 12:00:21;;;;;;;;;;;;;;;-4.74;70.14;101182.06;4988678;28;20012;-83
2022/03/07 12:02:57;;;;;;;;;;;;;;;-4.67;70.54;101193.78;4992859;28;19979;-87
2022/03/07 12:05:24;;;;;;;;;;;;;;;-4.60;70.72;101194.78;4993184;28;19925;-83
2022/03/07 12:07:50;;;;;;;;;;;;;;;-4.61;68.76;101192.25;4992507;28;19925;-83
2022/03/07 12:10:16;;;;;;;;;;;;;;;-4.65;68.51;101191.78;4993370;28;19949;-83
2022/03/07 12:12:41;;;;;;;;;;;;;;;-4.64;68.45;101193.44;4994537;28;19925;-84
2022/03/07 12:15:08;;;;;;;;;;;;;;;-4.55;67.34;101197.78;4990055;28;19926;-84
2022/03/07 12:17:33;;;;;;;;;;;;;;;-4.56;65.82;101200.63;5005404;28;19925;-89
2022/03/07 12:19:59;;;;;;;;;;;;;;;-4.59;65.58;101200.97;4993685;28;20483;-88
2022/03/07 12:22:25;;;;;;;;;;;;;;;-4.57;64.52;101205.13;4990262;28;19926;-83
2022/03/07 12:24:54;;;;;;;;;;;;;;;-4.58;63.87;101208.00;4991143;28;19945;-81
2022/03/07 12:27:19;;;;;;;;;;;;;;;-4.67;64.59;101222.41;4990134;28;20008;-78
2022/03/07 12:29:45;;;;;;;;;;;;;;;-4.69;64.90;101217.19;5000130;28;19992;-81